Atyray, Kazakhstan

10:42 PM AQTT on September 30, 2014 (GMT +0500)
Atyrau | Change Station
CLOSE
Current Station
Airport
Location: Atyrau,
Elevation: -72 ft
Nearby Weather Stations

Elev -72 ft 47.12 °N, 51.83 °E | Updated 12 minutes ago

Clear
Clear
57 °F
Feels Like 57 °F
N
18
Wind Variable Wind from SSW

Today
High -- | Low -- °F
--% Chance of Precip.
Yesterday
High -- | Low -- °F
Precip. -- in
7:29 AM 7:14 PM
Waxing Crescent, 38% visible
Pressure 30.04 in
Visibility -9999.0 miles
Clouds
Dew Point 48 °F
Humidity 72%
Rainfall 0.00 in
Snow Depth Not available.
UV Not available.
Pollen Not available.
Air Quality Not available.
Flu Activity Not available.
METAR UATG 301730Z 20008MPS CAVOK 14/09 Q1017 R14/CLRD70 NOSIG RMK QFE765/1020

More Conditions Fewer Conditions

Pressure 30.04 in
Visibility -9999.0 miles
Clouds
Dew Point 48 °F
Humidity 72%
Rainfall 0.00 in
Snow Depth Not available.
UV Not available.
Pollen Not available.
Air Quality Not available.
Flu Activity Not available.
METAR UATG 301730Z 20008MPS CAVOK 14/09 Q1017 R14/CLRD70 NOSIG RMK QFE765/1020

More Conditions Fewer Conditions

10-Day Weather Forecast

Almanac

Astronomy

Sep. 30, 2014 Rise Set
Actual Time 7:29 AM AQTT 7:14 PM AQTT
Civil Twilight 6:58 AM AQTT 7:44 PM AQTT
Nautical Twilight 6:23 AM AQTT 8:20 PM AQTT
Astronomical Twilight 5:47 AM AQTT 8:56 PM AQTT
Moon 1:33 PM AQTT 11:04 PM AQTT
Length of Visible Light 12h 46m
Length of Day
11h 45m
Tomorrow will be 3m 21s shorter.
Waxing Crescent, 38% of the Moon is Illuminated
Today
Waxing Crescent
Oct 1
First Quarter
Oct 8
Full
Oct 15
Last Quarter
Oct 23
New

Today's Extremes

Country Highs Country Lows

Community

WunderPhotos

Upload Photos

1,757,693 photos uploaded!

Nearby

Snow Depth

Not available.

Earthquake Activity

City Distance Mag. Time & Date
No recent earthquake activity has been reported nearby.
Minimum magnitude displayed is 2.5.

Coastal Water Temperatures

Place Temperature
No Stations Reporting

Nearby Weather Stations